Data for 10/10/2015

Time Sea-Level Adjusted Pressure Absolute Pressure Temperature Relative Humidity Dew Point   
(mb) (inHg) (mb) (inHg) (C) (F) (%) (C) (F)
00:05 1020 30.12 850 25.1 15 58.9 36 0.3 32.6
00:10 1020 30.12 850 25.1 14.6 58.2 38 0.5 33
00:15 1020 30.12 850 25.1 14.4 57.9 38 0.3 32.6
00:20 1020 30.12 850 25.1 14.3 57.8 39 0.5 32.8
00:25 1020 30.12 850 25.1 14.2 57.5 39 0.4 32.7
00:30 1020 30.12 850 25.1 14.3 57.7 38 0.2 32.3
00:35 1020 30.12 850 25.1 14.5 58.2 37 0.2 32.3
00:40 1021 30.15 850 25.1 14.6 58.4 37 0.3 32.6
00:45 1021 30.15 850 25.1 14.5 58 37 0.2 32.3
00:50 1020 30.12 850 25.1 14.7 58.5 35 -0.3 31.4
00:55 1021 30.15 850 25.1 14.9 58.8 36 0.1 32.1
01:00 1020 30.12 850 25.1 15.1 59.1 35 -0.2 31.7
01:05 1020 30.12 850 25.1 15 58.9 36 0.1 32.2
01:10 1021 30.15 850 25.1 14.8 58.6 37 0.3 32.6
01:15 1021 30.15 850 25.1 14.3 57.7 37 -0.1 31.9
01:20 1021 30.15 850 25.1 14.6 58.2 36 -0.1 31.8
01:25 1021 30.15 850 25.1 14.7 58.4 37 0.1 32.2
01:30 1021 30.15 850 25.1 14.5 58.2 37 0.2 32.4
01:35 1020 30.12 850 25.1 14.4 57.9 38 0.3 32.5
01:40 1020 30.12 850 25.1 14.3 57.7 38 0.2 32.3
01:45 1020 30.12 850 25.1 14.3 57.7 38 0.3 32.5
01:50 1020 30.12 850 25.1 14.2 57.6 39 0.6 33
01:55 1020 30.12 850 25.1 14 57.2 40 0.6 33
02:00 1020 30.12 850 25.1 13.9 56.9 40 0.7 33.2
02:05 1020 30.12 849 25.07 13.6 56.4 41 0.7 33.3
02:10 1020 30.12 849 25.07 13.7 56.6 41 0.6 33
02:15 1020 30.12 849 25.07 13.6 56.4 42 0.9 33.6
02:20 1020 30.12 849 25.07 13.3 56 42 0.8 33.5
02:25 1020 30.12 849 25.07 13.4 56 42 0.9 33.5
02:30 1020 30.12 849 25.07 13.4 56.2 42 0.7 33.3
02:35 1020 30.12 849 25.07 13.9 56.9 40 0.6 33.1
02:40 1020 30.12 849 25.07 14.1 57.3 40 0.6 33.1
02:45 1020 30.12 849 25.07 14.1 57.4 39 0.6 33.1
02:50 1020 30.12 849 25.07 14.5 58.1 39 0.8 33.4
02:55 1020 30.12 849 25.07 14.1 57.4 41 1.1 34
03:00 1020 30.12 849 25.07 13.7 56.7 41 0.7 33.2
03:05 1020 30.12 849 25.07 14.1 57.4 39 0.4 32.8
03:10 1020 30.12 849 25.07 13.7 56.7 42 1.1 34
03:15 1020 30.12 849 25.07 13.5 56.3 42 1 33.7
03:20 1020 30.12 849 25.07 13.2 55.8 44 1.2 34.2
03:25 1020 30.12 849 25.07 13.2 55.7 44 1.1 34
03:30 1020 30.12 849 25.07 13.3 56 43 1.1 34.1
03:35 1020 30.12 849 25.07 13.4 56.1 43 1 33.9
03:40 1020 30.12 849 25.07 13.7 56.6 41 0.9 33.6
03:45 1020 30.12 849 25.07 13.7 56.7 41 0.8 33.5
03:50 1020 30.12 849 25.07 13.8 56.8 41 0.9 33.7
03:55 1020 30.12 849 25.07 13.7 56.7 41 0.7 33.3
04:00 1020 30.12 849 25.07 13.9 56.9 41 0.9 33.6
04:05 1020 30.12 849 25.07 13.6 56.5 42 1.1 34
04:10 1019 30.09 849 25.07 13.4 56.1 42 0.9 33.7
04:15 1019 30.09 849 25.07 13.6 56.5 41 0.7 33.3
04:20 1019 30.09 849 25.07 13.7 56.7 41 0.7 33.2
04:25 1019 30.09 849 25.07 13.9 57 40 0.6 33
04:30 1019 30.09 849 25.07 13.9 57.1 40 0.6 33.1
04:35 1019 30.09 849 25.07 14 57.1 41 0.9 33.7
04:40 1019 30.09 849 25.07 13.6 56.4 42 0.9 33.6
04:45 1019 30.09 849 25.07 13.2 55.7 43 1 33.8
04:50 1019 30.09 849 25.07 12.9 55.3 44 1 33.8
04:55 1019 30.09 848 25.04 12.7 54.8 44 0.8 33.5
05:00 1019 30.09 848 25.04 12.8 55.1 42 0.4 32.7
05:05 1019 30.09 848 25.04 13.2 55.7 42 0.6 33
05:10 1019 30.09 848 25.04 13 55.3 44 0.9 33.6
05:15 1019 30.09 848 25.04 13 55.5 44 1.1 33.9
05:20 1019 30.09 848 25.04 13 55.5 43 0.9 33.5
05:25 1019 30.09 848 25.04 13.3 55.9 42 0.6 33.1
05:30 1019 30.09 848 25.04 13.6 56.5 41 0.7 33.2
05:35 1019 30.09 848 25.04 13.6 56.4 41 0.6 33
05:40 1019 30.09 848 25.04 13.7 56.7 41 0.7 33.3
05:45 1019 30.09 848 25.04 13.5 56.3 42 0.8 33.5
05:50 1019 30.09 848 25.04 13.3 55.9 43 0.9 33.6
05:55 1019 30.09 848 25.04 13.3 55.9 42 0.8 33.4
06:00 1019 30.09 848 25.04 13.4 56.2 42 0.8 33.4
06:05 1019 30.09 848 25.04 13.5 56.2 42 0.8 33.4
06:10 1019 30.09 848 25.04 13.5 56.3 41 0.6 33.1
06:15 1019 30.09 848 25.04 13.6 56.4 41 0.5 32.9
06:20 1019 30.09 848 25.04 13.7 56.6 41 0.7 33.3
06:25 1019 30.09 848 25.04 13.8 56.8 40 0.4 32.8
06:30 1019 30.09 848 25.04 14 57.2 40 0.5 33
06:35 1019 30.09 848 25.04 13.8 56.9 41 0.9 33.6
06:40 1019 30.09 848 25.04 13.5 56.2 41 0.6 33.1
06:45 1019 30.09 848 25.04 13.4 56 41 0.5 32.9
06:50 1019 30.09 848 25.04 13.5 56.3 40 0.4 32.6
06:55 1018 30.06 848 25.04 13.5 56.4 40 0.4 32.8
07:00 1018 30.06 848 25.04 13.7 56.7 40 0.4 32.8
07:05 1018 30.06 848 25.04 13.8 56.9 40 0.4 32.7
07:10 1018 30.06 848 25.04 13.8 56.9 40 0.5 32.8
07:15 1018 30.06 847 25.01 13.9 57 39 0.3 32.5
07:20 1018 30.06 847 25.01 14.1 57.3 37 -0.1 31.8
07:25 1018 30.06 847 25.01 14.5 58.2 37 0.1 32.2
07:30 1018 30.06 847 25.01 15 59.1 35 -0.1 31.8
07:35 1018 30.06 847 25.01 15.3 59.6 36 0.3 32.5
07:40 1018 30.06 847 25.01 15.4 59.7 34 -0.3 31.5
07:45 1018 30.06 847 25.01 15.7 60.3 33 -0.3 31.5
07:50 1018 30.06 847 25.01 16.4 61.5 31 -0.5 31.1
07:55 1018 30.06 847 25.01 17.2 62.9 30 -0.5 31.1
08:00 1018 30.06 847 25.01 17.7 63.9 31 0.5 32.9
08:05 1018 30.06 847 25.01 17.9 64.2 29 -0 31.9
08:10 1018 30.06 847 25.01 17.7 63.8 31 0.5 32.8
08:15 1018 30.06 847 25.01 17.9 64.2 30 0.3 32.5
08:20 1018 30.06 847 25.01 18.1 64.6 30 0.2 32.4
08:25 1018 30.06 847 25.01 18.1 64.6 29 0.1 32.1
08:30 1018 30.06 847 25.01 18.6 65.4 28 0.1 32.1
08:35 1018 30.06 847 25.01 19.4 67 27 0.2 32.3
08:40 1018 30.06 847 25.01 19.3 66.7 29 0.8 33.5
08:45 1018 30.06 847 25.01 18.8 65.8 30 0.8 33.5
08:50 1018 30.06 847 25.01 18.7 65.6 30 0.8 33.4
08:55 1018 30.06 847 25.01 19.4 66.8 29 0.8 33.5
09:00 1018 30.06 847 25.01 20.1 68.1 28 1 33.9
09:05 1018 30.06 847 25.01 20.4 68.7 29 1.9 35.4
09:10 1018 30.06 847 25.01 20.1 68.2 29 1.8 35.2
09:15 1018 30.06 847 25.01 19.9 67.7 29 1.4 34.5
09:20 1018 30.06 847 25.01 20.8 69.4 27 1.5 34.7
09:25 1018 30.06 847 25.01 22 71.5 26 2 35.6
09:30 1018 30.06 847 25.01 22.6 72.6 25 2 35.7
09:35 1018 30.06 847 25.01 23 73.3 24 1.8 35.2
09:40 1018 30.06 847 25.01 22.9 73.2 24 1.2 34.1
09:45 1018 30.06 847 25.01 23.3 74 23 1.4 34.6
09:50 1018 30.06 847 25.01 23.1 73.6 24 1.5 34.7
09:55 1018 30.06 847 25.01 23.4 74.1 23 1.5 34.7
10:00 1018 30.06 847 25.01 24 75.3 23 1.8 35.3
10:05 1018 30.06 847 25.01 24.5 76 23 2.2 36
10:10 1018 30.06 847 25.01 24.9 76.8 20 0.8 33.4
10:15 1018 30.06 847 25.01 24.4 76 20 -0 31.9
10:20 1017 30.03 847 25.01 23.9 75 20 -0.1 31.8
10:25 1017 30.03 847 25.01 24.1 75.3 21 0.5 32.9
10:30 1017 30.03 847 25.01 24.5 76.2 21 1 33.8
10:35 1017 30.03 846 24.98 24.9 76.9 19 -0.3 31.5
10:40 1017 30.03 846 24.98 24.9 76.7 18 -0.6 30.9
10:45 1017 30.03 846 24.98 24.7 76.5 19 0.1 32.1
10:50 1017 30.03 846 24.98 25.1 77.1 17 -1.5 29.3
10:55 1017 30.03 846 24.98 25.1 77.1 17 -1.6 29
11:00 1017 30.03 846 24.98 25.2 77.4 16 -1.8 28.8
11:05 1017 30.03 846 24.98 25.3 77.6 16 -1.9 28.6
11:10 1017 30.03 846 24.98 25.5 78 16 -2.3 27.9
11:15 1017 30.03 846 24.98 25.7 78.2 16 -2 28.5
11:20 1017 30.03 846 24.98 25.8 78.4 15 -2.3 27.9
11:25 1017 30.03 846 24.98 25.9 78.6 15 -2.5 27.4
11:30 1016 30 846 24.98 25.9 78.7 15 -2 28.4
11:35 1016 30 846 24.98 26.2 79.1 15 -2.1 28.2
11:40 1016 30 846 24.98 26.3 79.4 15 -1.9 28.5
11:45 1016 30 845 24.95 26.2 79.2 16 -1.6 29.1
11:50 1016 30 845 24.95 26.3 79.3 15 -2.3 27.9
11:55 1016 30 845 24.95 26.2 79.1 15 -2.2 28.1
12:00 1016 30 845 24.95 26.2 79.2 14 -2.8 27
12:05 1016 30 845 24.95 26.5 79.6 15 -2.3 27.9
12:10 1016 30 845 24.95 26.4 79.5 14 -3 26.5
12:15 1016 30 845 24.95 26.7 80.1 14 -2.3 27.8
12:20 1016 30 845 24.95 26.8 80.2 14 -2.4 27.7
12:25 1016 30 845 24.95 26.9 80.5 14 -2.3 27.9
12:30 1015 29.97 845 24.95 27.2 81 12 -4.2 24.5
12:35 1015 29.97 845 24.95 27.5 81.4 12 -3.9 24.9
12:40 1015 29.97 845 24.95 27.6 81.8 12 -4.2 24.5
12:45 1015 29.97 844 24.92 28 82.4 11 -5.2 22.6
12:50 1015 29.97 844 24.92 27.9 82.2 11 -5 23
12:55 1015 29.97 844 24.92 27.7 81.9 11 -5.5 22.1
13:00 1015 29.97 844 24.92 27.4 81.3 10 -6.9 19.6
13:05 1015 29.97 844 24.92 27.6 81.6 10 -6.5 20.3
13:10 1015 29.97 844 24.92 27.7 81.9 10 -6.2 20.8
13:15 1015 29.97 844 24.92 28 82.3 10 -6.4 20.4
13:20 1015 29.97 844 24.92 28 82.3 10 -6.8 19.8
13:25 1015 29.97 844 24.92 28.1 82.5 10 -5.5 22
13:30 1014 29.94 844 24.92 28.3 83 11 -4.8 23.4
13:35 1014 29.94 844 24.92 28.2 82.7 10 -6 21.2
13:40 1014 29.94 843 24.89 28.2 82.8 9 -6.8 19.7
13:45 1014 29.94 843 24.89 28 82.3 10 -5.8 21.5
13:50 1014 29.94 843 24.89 28 82.3 10 -6.1 20.9
13:55 1014 29.94 843 24.89 27.9 82.3 11 -5.6 22
14:00 1014 29.94 843 24.89 28 82.4 11 -5.3 22.4
14:05 1014 29.94 843 24.89 28 82.3 11 -5.3 22.4
14:10 1014 29.94 843 24.89 28 82.3 10 -5.8 21.6
14:15 1014 29.94 843 24.89 28.1 82.6 10 -5.5 22
14:20 1014 29.94 843 24.89 28 82.4 11 -4.8 23.4
14:25 1014 29.94 843 24.89 28.1 82.6 11 -5.2 22.7
14:30 1014 29.94 843 24.89 28 82.4 10 -5.9 21.4
14:35 1014 29.94 843 24.89 28 82.4 11 -5 22.9
14:40 1014 29.94 843 24.89 27.9 82.2 10 -5.7 21.7
14:45 1014 29.94 843 24.89 27.9 82.1 11 -4.6 23.8
14:50 1014 29.94 843 24.89 27.9 82.1 11 -5.5 22.1
14:55 1014 29.94 843 24.89 28.1 82.5 11 -4.5 23.9
15:00 1013 29.91 843 24.89 28.1 82.6 11 -4.7 23.5
15:05 1013 29.91 843 24.89 28 82.3 11 -4.5 24
15:10 1013 29.91 843 24.89 28 82.3 11 -4.8 23.3
15:15 1013 29.91 843 24.89 27.8 82 12 -4.3 24.2
15:20 1013 29.91 843 24.89 27.4 81.4 11 -5.2 22.7
15:25 1013 29.91 843 24.89 27.5 81.6 12 -4.1 24.6
15:30 1013 29.91 843 24.89 27.7 81.8 12 -4.2 24.5
15:35 1013 29.91 843 24.89 27.5 81.5 12 -4 24.9
15:40 1013 29.91 842 24.86 27.1 80.8 13 -3.8 25.2
15:45 1013 29.91 842 24.86 27 80.6 13 -3.4 25.8
15:50 1013 29.91 842 24.86 27.2 81 14 -2.6 27.3
15:55 1013 29.91 842 24.86 27.2 81 14 -2.5 27.6
16:00 1013 29.91 842 24.86 27.1 80.8 13 -3.2 26.2
16:05 1013 29.91 842 24.86 27 80.7 13 -3.5 25.7
16:10 1013 29.91 842 24.86 26.8 80.2 13 -3.2 26.3
16:15 1013 29.91 842 24.86 26.7 80.1 14 -3.2 26.3
16:20 1013 29.91 842 24.86 26.7 80.1 14 -2.8 27
16:25 1013 29.91 842 24.86 26.6 79.9 14 -2.7 27.1
16:30 1013 29.91 842 24.86 26.4 79.5 14 -2.8 27
16:35 1013 29.91 842 24.86 26.3 79.4 14 -2.6 27.3
16:40 1012 29.88 842 24.86 26.2 79.1 15 -2 28.4
16:45 1012 29.88 842 24.86 26.1 78.9 15 -2.3 27.9
16:50 1012 29.88 842 24.86 25.9 78.7 15 -2.1 28.1
16:55 1012 29.88 842 24.86 25.8 78.4 15 -2.6 27.3
17:00 1012 29.88 841 24.83 25.7 78.3 15 -2.3 27.9
17:05 1012 29.88 841 24.83 25.6 78 15 -2.4 27.7
17:10 1012 29.88 841 24.83 25.5 77.8 16 -2.3 27.8
17:15 1012 29.88 841 24.83 25.3 77.5 16 -2.3 27.8
17:20 1012 29.88 841 24.83 25 77 18 -0.9 30.3
17:25 1012 29.88 841 24.83 24.8 76.6 18 -1.2 29.9
17:30 1012 29.88 841 24.83 24.7 76.4 18 -0.9 30.3
17:35 1012 29.88 841 24.83 24.5 76.1 18 -1.1 30.1
17:40 1012 29.88 841 24.83 24.3 75.7 19 -0.6 30.9
17:45 1012 29.88 841 24.83 23.9 75.1 19 -0.8 30.6
17:50 1012 29.88 841 24.83 23.7 74.7 19 -0.7 30.7
17:55 1012 29.88 841 24.83 23.6 74.5 20 -0.7 30.7
18:00 1012 29.88 841 24.83 23.6 74.5 19 -1.2 29.9
18:05 1012 29.88 841 24.83 23.7 74.6 19 -1.1 30.1
18:10 1012 29.88 841 24.83 23.7 74.7 20 -0.7 30.8
18:15 1011 29.85 841 24.83 23.7 74.7 19 -0.8 30.6
18:20 1011 29.85 841 24.83 23.8 74.8 19 -0.9 30.4
18:25 1011 29.85 841 24.83 23.8 74.8 19 -1 30.3
18:30 1011 29.85 840 24.81 23.9 75.1 19 -0.9 30.4
18:35 1011 29.85 840 24.81 24.1 75.3 19 -1 30.3
18:40 1011 29.85 840 24.81 24.1 75.4 19 -0.9 30.4
18:45 1011 29.85 840 24.81 24.1 75.3 19 -0.8 30.5
18:50 1011 29.85 840 24.81 24.2 75.5 19 -0.7 30.7
18:55 1011 29.85 840 24.81 24.1 75.3 19 -0.5 31
19:00 1011 29.85 840 24.81 24.1 75.3 19 -0.4 31.3
19:05 1011 29.85 840 24.81 24 75.2 20 -0.3 31.5
19:10 1011 29.85 840 24.81 23.9 75.1 20 -0.4 31.2
19:15 1011 29.85 840 24.81 24.1 75.4 19 -0.4 31.2
19:20 1011 29.85 840 24.81 24 75.2 19 -0.5 31.1
19:25 1011 29.85 840 24.81 24 75.2 19 -0.5 31.1
19:30 1011 29.85 840 24.81 24 75.2 20 -0.4 31.2
19:35 1011 29.85 840 24.81 24 75.2 20 -0.3 31.4
19:40 1011 29.85 840 24.81 23.9 75.1 19 -0.9 30.4
19:45 1011 29.85 840 24.81 24 75.1 19 -0.6 30.9
19:50 1011 29.85 840 24.81 23.9 75 20 -0.4 31.4
19:55 1011 29.85 840 24.81 23.8 74.8 20 -0.4 31.3
20:00 1011 29.85 840 24.81 23.8 74.8 20 -0.2 31.7
20:05 1011 29.85 840 24.81 23.5 74.2 21 0.3 32.5
20:10 1011 29.85 840 24.81 23 73.4 21 0 32
20:15 1011 29.85 840 24.81 23 73.3 21 -0.2 31.6
20:20 1011 29.85 840 24.81 22.8 73.1 21 -0.5 31.1
20:25 1011 29.85 840 24.81 22.9 73.3 21 -0.4 31.3
20:30 1011 29.85 840 24.81 22.9 73.2 21 -0.6 31
20:35 1011 29.85 840 24.81 22.9 73.2 21 -0.4 31.3
20:40 1011 29.85 840 24.81 22.8 73.1 20 -0.8 30.5
20:45 1011 29.85 840 24.81 23 73.3 20 -0.9 30.4
20:50 1011 29.85 840 24.81 22.9 73.3 20 -1 30.3
20:55 1011 29.85 840 24.81 22.9 73.2 20 -1 30.3
21:00 1011 29.85 840 24.81 22.8 73 20 -1.2 29.9
21:05 1011 29.85 840 24.81 22.7 72.8 20 -1.1 30.1
21:10 1011 29.85 840 24.81 22.4 72.4 21 -0.9 30.3
21:15 1011 29.85 840 24.81 22.1 71.7 22 -0.5 31.1
21:20 1011 29.85 840 24.81 21.9 71.3 21 -1.5 29.4
21:25 1011 29.85 840 24.81 22.1 71.8 20 -1.6 29.1
21:30 1011 29.85 840 24.81 22 71.6 21 -1.4 29.5
21:35 1011 29.85 840 24.81 21.8 71.2 21 -1.5 29.3
21:40 1011 29.85 840 24.81 21.8 71.2 21 -1.6 29
21:45 1011 29.85 840 24.81 21.7 71.1 20 -1.9 28.5
21:50 1011 29.85 840 24.81 21.5 70.7 21 -1.5 29.4
21:55 1011 29.85 840 24.81 21.1 69.9 22 -1.3 29.7
22:00 1011 29.85 840 24.81 20.9 69.7 22 -1.3 29.7
22:05 1010 29.83 840 24.81 21 69.8 22 -1.2 29.8
22:10 1010 29.83 840 24.81 21.2 70.1 22 -1.2 29.9
22:15 1011 29.85 840 24.81 21.2 70.2 22 -1.2 29.9
22:20 1011 29.85 840 24.81 21.2 70.2 22 -1.2 29.8
22:25 1010 29.83 840 24.81 21.5 70.6 22 -1.2 29.8
22:30 1010 29.83 840 24.81 21.5 70.8 22 -1.1 30.1
22:35 1010 29.83 840 24.81 21.6 70.9 21 -1.3 29.6
22:40 1010 29.83 840 24.81 21.8 71.3 20 -1.7 28.9
22:45 1010 29.83 840 24.81 22 71.6 20 -1.5 29.2
22:50 1010 29.83 840 24.81 21.9 71.5 20 -1.6 29.2
22:55 1010 29.83 840 24.81 21.8 71.2 21 -1.6 29.1
23:00 1010 29.83 840 24.81 21.9 71.3 21 -1.6 29.1
23:05 1010 29.83 839 24.78 21.7 71 20 -2 28.4
23:10 1010 29.83 839 24.78 21.8 71.2 20 -1.9 28.5
23:15 1010 29.83 839 24.78 21.7 71.1 20 -1.8 28.7
23:20 1010 29.83 839 24.78 21.8 71.2 20 -2 28.4
23:25 1010 29.83 839 24.78 21.8 71.2 20 -2.2 28
23:30 1010 29.83 839 24.78 21.9 71.3 20 -2 28.4
23:35 1010 29.83 839 24.78 21.6 70.9 20 -2.2 28
23:40 1010 29.83 839 24.78 21.8 71.2 19 -2.4 27.6
23:45 1010 29.83 839 24.78 21.8 71.2 19 -2.3 27.8
23:50 1010 29.83 839 24.78 21.5 70.8 19 -2.6 27.3
23:55 1010 29.83 839 24.78 21.7 71 20 -2.2 28
24:00 1010 29.83 839 24.78 21.3 70.4 20 -2.2 28.1